createdAt,value
2023-01-07T05:00:51.123Z,8.89
2023-01-07T05:01:51.061Z,8.91
2023-01-07T05:02:50.834Z,8.89
2023-01-07T05:03:50.840Z,8.92
2023-01-07T05:04:50.845Z,8.94
2023-01-07T05:05:50.818Z,8.92
2023-01-07T05:06:50.853Z,8.92
2023-01-07T05:07:50.791Z,8.94
2023-01-07T05:08:50.773Z,8.94
2023-01-07T05:09:50.780Z,8.94
2023-01-07T05:10:50.803Z,8.92
2023-01-07T05:11:50.732Z,8.94
2023-01-07T05:12:50.768Z,8.92
2023-01-07T05:13:50.729Z,8.94
2023-01-07T05:14:50.690Z,8.92
2023-01-07T05:16:00.634Z,8.91
2023-01-07T05:16:50.699Z,8.92
2023-01-07T05:17:50.663Z,8.92
2023-01-07T05:18:50.682Z,8.91
2023-01-07T05:19:50.639Z,8.91
2023-01-07T05:20:50.609Z,8.91
2023-01-07T05:21:50.602Z,8.91
2023-01-07T05:22:50.575Z,8.87
2023-01-07T05:23:50.594Z,8.87
2023-01-07T05:24:50.604Z,8.87
2023-01-07T05:25:50.577Z,8.86
2023-01-07T05:26:50.524Z,8.86
2023-01-07T05:27:50.545Z,8.84
2023-01-07T05:28:50.507Z,8.84
2023-01-07T05:29:50.520Z,8.84
2023-01-07T05:30:50.579Z,8.84
2023-01-07T05:31:50.494Z,8.81
2023-01-07T05:32:50.452Z,8.81
2023-01-07T05:33:50.454Z,8.81
2023-01-07T05:34:50.409Z,8.81
2023-01-07T05:35:50.426Z,8.80
2023-01-07T05:36:50.466Z,8.81
2023-01-07T05:37:50.408Z,8.79
2023-01-07T05:38:50.371Z,8.79
2023-01-07T05:39:50.390Z,8.80
2023-01-07T05:40:50.333Z,8.80
2023-01-07T05:41:50.353Z,8.77
2023-01-07T05:42:50.357Z,8.77
2023-01-07T05:43:50.343Z,8.76
2023-01-07T05:44:50.301Z,8.76
2023-01-07T05:45:50.458Z,8.74
2023-01-07T05:46:50.270Z,8.73
2023-01-07T05:47:50.273Z,8.74
2023-01-07T05:48:50.285Z,8.76
2023-01-07T05:49:50.237Z,8.79
2023-01-07T05:50:50.211Z,8.80
2023-01-07T05:51:50.239Z,8.81
2023-01-07T05:52:50.190Z,8.86
2023-01-07T05:53:50.197Z,8.84
2023-01-07T05:54:50.248Z,8.86
2023-01-07T05:55:50.180Z,8.86
2023-01-07T05:56:50.138Z,8.86
2023-01-07T05:57:50.143Z,8.87
2023-01-07T05:58:50.117Z,8.87
2023-01-07T05:59:50.120Z,8.87
2023-01-07T06:00:50.166Z,8.87
2023-01-07T06:01:50.100Z,8.86
2023-01-07T06:02:50.057Z,8.86
2023-01-07T06:03:50.164Z,8.86
2023-01-07T06:04:50.160Z,8.86
2023-01-07T06:05:50.024Z,8.84
2023-01-07T06:06:50.036Z,8.86
2023-01-07T06:07:50.017Z,8.84
2023-01-07T06:08:50.190Z,8.84
2023-01-07T06:09:49.980Z,8.83
2023-01-07T06:10:49.950Z,8.83
2023-01-07T06:11:49.966Z,8.83
2023-01-07T06:12:49.938Z,8.83
2023-01-07T06:13:49.934Z,8.84
2023-01-07T06:14:49.945Z,8.84
2023-01-07T06:15:49.956Z,8.86
2023-01-07T06:16:49.873Z,8.87
2023-01-07T06:17:49.889Z,8.86
2023-01-07T06:18:49.871Z,8.86
2023-01-07T06:19:49.857Z,8.84
2023-01-07T06:20:49.909Z,8.84
2023-01-07T06:21:49.825Z,8.83
2023-01-07T06:22:49.792Z,8.83
2023-01-07T06:23:49.801Z,8.81
2023-01-07T06:24:49.763Z,8.80
2023-01-07T06:25:49.770Z,8.81
2023-01-07T06:26:49.907Z,8.80
2023-01-07T06:27:49.756Z,8.80
2023-01-07T06:28:49.718Z,8.80
2023-01-07T06:29:49.717Z,8.79
2023-01-07T06:30:49.701Z,8.79
2023-01-07T06:31:49.697Z,8.77
2023-01-07T06:32:49.718Z,8.77
2023-01-07T06:33:49.667Z,8.76
2023-01-07T06:34:49.647Z,8.74
2023-01-07T06:35:49.671Z,8.76
2023-01-07T06:36:49.607Z,8.74
2023-01-07T06:37:49.616Z,8.73
2023-01-07T06:38:49.676Z,8.73
2023-01-07T06:39:49.585Z,8.71
2023-01-07T06:40:49.554Z,8.71
2023-01-07T06:41:49.564Z,8.70
2023-01-07T06:42:49.537Z,8.70
2023-01-07T06:43:49.563Z,8.68
2023-01-07T06:44:49.537Z,8.68
2023-01-07T06:45:49.513Z,8.66
2023-01-07T06:46:49.482Z,8.63
2023-01-07T06:47:49.485Z,8.63
2023-01-07T06:48:49.452Z,8.62
2023-01-07T06:49:49.460Z,8.61
2023-01-07T06:50:49.506Z,8.58
2023-01-07T06:51:49.430Z,8.58
2023-01-07T06:52:49.404Z,8.56
2023-01-07T06:53:49.404Z,8.52
2023-01-07T06:54:49.378Z,8.53
2023-01-07T06:55:49.399Z,8.52
2023-01-07T06:56:49.427Z,8.50
2023-01-07T06:57:49.389Z,8.48
2023-01-07T06:58:49.350Z,8.48
2023-01-07T06:59:49.407Z,8.47
2023-01-07T07:00:49.309Z,8.45
2023-01-07T07:01:49.418Z,8.47
2023-01-07T07:02:49.339Z,8.48
2023-01-07T07:03:49.273Z,8.48
2023-01-07T07:04:49.240Z,8.50
2023-01-07T07:05:49.299Z,8.50
2023-01-07T07:06:49.220Z,8.50
2023-01-07T07:07:49.222Z,8.52
2023-01-07T07:08:49.196Z,8.53
2023-01-07T07:09:49.198Z,8.53
2023-01-07T07:10:49.179Z,8.52
2023-01-07T07:11:49.784Z,8.52
2023-01-07T07:12:49.141Z,8.53
2023-01-07T07:13:49.139Z,8.53
2023-01-07T07:14:49.132Z,8.55
2023-01-07T07:15:49.174Z,8.55
2023-01-07T07:16:49.099Z,8.53
2023-01-07T07:17:49.146Z,8.55
2023-01-07T07:18:49.056Z,8.56
2023-01-07T07:19:49.078Z,8.56
2023-01-07T07:20:49.193Z,8.58
2023-01-07T07:21:49.046Z,8.58
2023-01-07T07:22:49.021Z,8.58
2023-01-07T07:23:49.016Z,8.56
2023-01-07T07:24:48.984Z,8.59
2023-01-07T07:25:48.992Z,8.61
2023-01-07T07:26:49.167Z,8.61
2023-01-07T07:27:48.953Z,8.61
2023-01-07T07:28:48.950Z,8.58
2023-01-07T07:29:48.943Z,8.61
2023-01-07T07:30:48.994Z,8.61
2023-01-07T07:31:48.922Z,8.61
2023-01-07T07:32:48.995Z,8.61
2023-01-07T07:33:48.891Z,8.61
2023-01-07T07:34:48.850Z,8.59
2023-01-07T07:35:48.873Z,8.62
2023-01-07T07:36:48.828Z,8.61
2023-01-07T07:37:48.835Z,8.61
2023-01-07T07:38:48.881Z,8.61
2023-01-07T07:39:48.815Z,8.62
2023-01-07T07:40:48.773Z,8.61
2023-01-07T07:41:48.775Z,8.63
2023-01-07T07:43:11.658Z,8.61
2023-01-07T07:43:49.783Z,8.62
2023-01-07T07:44:48.732Z,8.62
2023-01-07T07:45:48.767Z,8.62
2023-01-07T07:46:48.727Z,8.62
2023-01-07T07:47:48.700Z,8.62
2023-01-07T07:48:48.669Z,8.61
2023-01-07T07:49:48.727Z,8.62
2023-01-07T07:50:48.648Z,8.63
2023-01-07T07:51:48.647Z,8.62
2023-01-07T07:52:48.617Z,8.62
2023-01-07T07:53:48.639Z,8.61
2023-01-07T07:54:48.637Z,8.61
2023-01-07T07:55:48.604Z,8.63
2023-01-07T07:56:48.565Z,8.62
2023-01-07T07:57:48.581Z,8.63
2023-01-07T07:58:48.547Z,8.61
2023-01-07T07:59:48.547Z,8.62
2023-01-07T08:00:48.764Z,8.62
2023-01-07T08:01:48.654Z,8.62
2023-01-07T08:02:48.512Z,8.62
2023-01-07T08:03:48.500Z,8.62
2023-01-07T08:04:48.464Z,8.63
2023-01-07T08:05:48.477Z,8.62
2023-01-07T08:06:48.561Z,8.63
2023-01-07T08:07:48.447Z,8.62
2023-01-07T08:08:48.444Z,8.65
2023-01-07T08:09:48.415Z,8.65
2023-01-07T08:10:48.386Z,8.66
2023-01-07T08:11:48.401Z,8.66
2023-01-07T08:12:48.409Z,8.68
2023-01-07T08:13:48.381Z,8.71
2023-01-07T08:14:48.333Z,8.74
2023-01-07T08:15:48.415Z,8.74
2023-01-07T08:16:48.320Z,8.77
2023-01-07T08:17:48.321Z,8.80
2023-01-07T08:18:48.282Z,8.81
2023-01-07T08:19:48.296Z,8.81
2023-01-07T08:20:48.296Z,8.86
2023-01-07T08:21:48.269Z,8.87
2023-01-07T08:22:48.241Z,8.89
2023-01-07T08:23:48.251Z,8.92
2023-01-07T08:24:48.208Z,8.92
2023-01-07T08:25:48.268Z,8.94
2023-01-07T08:26:48.198Z,8.95
2023-01-07T08:27:48.203Z,8.98
2023-01-07T08:28:48.238Z,8.99
2023-01-07T08:29:48.172Z,9.01
2023-01-07T08:30:48.124Z,9.04
2023-01-07T08:31:48.199Z,9.05
2023-01-07T08:32:48.103Z,9.10
2023-01-07T08:33:48.117Z,9.11
2023-01-07T08:34:48.094Z,9.13
2023-01-07T08:35:48.819Z,9.15
2023-01-07T08:36:48.055Z,9.17
2023-01-07T08:37:48.064Z,9.20
2023-01-07T08:38:48.048Z,9.21
2023-01-07T08:39:48.011Z,9.26
2023-01-07T08:40:48.014Z,9.28
2023-01-07T08:41:48.065Z,9.32
2023-01-07T08:42:47.986Z,9.36
2023-01-07T08:43:47.964Z,9.36
2023-01-07T08:44:48.053Z,9.40
2023-01-07T08:45:47.984Z,9.43
2023-01-07T08:46:48.021Z,9.47
2023-01-07T08:47:47.905Z,9.50
2023-01-07T08:48:47.913Z,9.53
2023-01-07T08:49:47.881Z,9.54
2023-01-07T08:50:47.934Z,9.56
2023-01-07T08:51:47.860Z,9.58
2023-01-07T08:52:47.863Z,9.61
2023-01-07T08:53:47.838Z,9.65
2023-01-07T08:54:48.253Z,9.66
2023-01-07T08:55:47.841Z,9.69
2023-01-07T08:56:47.811Z,9.74
2023-01-07T08:57:47.782Z,9.76
2023-01-07T08:58:47.817Z,9.81
2023-01-07T08:59:47.758Z,9.84
2023-01-07T09:00:47.832Z,9.86
2023-01-07T09:01:47.875Z,9.89
2023-01-07T09:02:47.758Z,9.91
2023-01-07T09:03:47.710Z,9.94
2023-01-07T09:04:47.713Z,9.94
2023-01-07T09:05:47.672Z,9.99
2023-01-07T09:06:47.719Z,10.01
2023-01-07T09:07:47.702Z,10.07
2023-01-07T09:08:47.660Z,10.11
2023-01-07T09:09:47.651Z,10.12
2023-01-07T09:10:47.637Z,10.17
2023-01-07T09:11:47.675Z,10.20
2023-01-07T09:12:47.607Z,10.22
2023-01-07T09:13:47.584Z,10.25
2023-01-07T09:14:47.578Z,10.26
2023-01-07T09:15:47.548Z,10.32
2023-01-07T09:16:47.576Z,10.34
2023-01-07T09:17:48.419Z,10.38
2023-01-07T09:18:47.547Z,10.40
2023-01-07T09:19:47.497Z,10.41
2023-01-07T09:20:47.508Z,10.40
2023-01-07T09:21:47.480Z,10.38
2023-01-07T09:22:47.488Z,10.40
2023-01-07T09:23:47.487Z,10.36
2023-01-07T09:24:48.069Z,10.38
2023-01-07T09:25:47.436Z,10.41
2023-01-07T09:26:47.443Z,10.42
2023-01-07T09:27:47.406Z,10.45
2023-01-07T09:28:47.426Z,10.52
2023-01-07T09:29:47.535Z,10.55
2023-01-07T09:30:47.394Z,10.60
2023-01-07T09:31:47.403Z,10.60
2023-01-07T09:32:47.363Z,10.63
2023-01-07T09:33:47.323Z,10.63
2023-01-07T09:34:47.326Z,10.63
2023-01-07T09:35:47.533Z,10.66
2023-01-07T09:36:47.314Z,10.61
2023-01-07T09:37:47.268Z,10.56
2023-01-07T09:38:47.271Z,10.55
2023-01-07T09:39:47.245Z,10.59
2023-01-07T09:40:47.244Z,10.61
2023-01-07T09:41:47.262Z,10.61
2023-01-07T09:42:47.221Z,10.61
2023-01-07T09:43:59.835Z,10.59
2023-01-07T09:44:48.210Z,10.55
2023-01-07T09:45:47.200Z,10.59
2023-01-07T09:46:47.172Z,10.60
2023-01-07T09:47:47.215Z,10.64
2023-01-07T09:48:47.142Z,10.68
2023-01-07T09:49:47.111Z,10.71
2023-01-07T09:50:47.119Z,10.73
2023-01-07T09:51:47.087Z,10.71
2023-01-07T09:52:47.080Z,10.71
2023-01-07T09:53:47.117Z,10.73
2023-01-07T09:54:47.080Z,10.70
2023-01-07T09:56:11.199Z,10.70
2023-01-07T09:56:48.061Z,10.68
2023-01-07T09:57:47.020Z,10.71
2023-01-07T09:58:47.067Z,10.78
2023-01-07T09:59:48.399Z,10.84
2023-01-07T10:00:46.990Z,10.89
2023-01-07T10:01:46.957Z,10.92
2023-01-07T10:02:47.034Z,10.96
2023-01-07T10:03:46.957Z,11.00
2023-01-07T10:04:46.929Z,11.03
2023-01-07T10:05:47.113Z,11.07
2023-01-07T10:06:46.923Z,11.09
2023-01-07T10:07:46.883Z,11.10
2023-01-07T10:08:46.887Z,11.02
2023-01-07T10:09:46.866Z,11.02
2023-01-07T10:10:46.864Z,11.00
2023-01-07T10:11:47.054Z,11.04
2023-01-07T10:12:46.829Z,11.02
2023-01-07T10:13:46.804Z,11.02
2023-01-07T10:14:46.851Z,11.00
2023-01-07T10:15:46.771Z,10.97
2023-01-07T10:16:46.846Z,10.99
2023-01-07T10:17:46.844Z,11.02
2023-01-07T10:18:46.753Z,11.06
2023-01-07T10:19:46.735Z,11.06
2023-01-07T10:20:46.742Z,11.07
2023-01-07T10:21:46.702Z,11.07
2023-01-07T10:22:46.746Z,11.07
2023-01-07T10:23:46.654Z,11.10
2023-01-07T10:24:46.664Z,11.17
2023-01-07T10:25:46.633Z,11.24
2023-01-07T10:26:46.641Z,11.27
2023-01-07T10:27:46.660Z,11.35
2023-01-07T10:28:46.651Z,11.37
2023-01-07T10:29:46.582Z,11.43
2023-01-07T10:30:46.593Z,11.46
2023-01-07T10:31:46.638Z,11.42
2023-01-07T10:32:46.801Z,11.43
2023-01-07T10:33:46.538Z,11.51
2023-01-07T10:34:46.544Z,11.47
2023-01-07T10:35:46.600Z,11.40
2023-01-07T10:36:46.504Z,11.36
2023-01-07T10:37:46.484Z,11.39
2023-01-07T10:38:46.520Z,11.35
2023-01-07T10:39:46.461Z,11.35
2023-01-07T10:40:46.459Z,11.25
2023-01-07T10:41:46.418Z,11.27
2023-01-07T10:42:46.560Z,11.24
2023-01-07T10:43:46.400Z,11.18
2023-01-07T10:44:46.416Z,11.14
2023-01-07T10:45:46.445Z,11.06
2023-01-07T10:46:46.385Z,10.99
2023-01-07T10:47:46.462Z,10.88
2023-01-07T10:48:46.379Z,10.81
2023-01-07T10:49:53.335Z,10.85
2023-01-07T10:50:46.334Z,10.91
2023-01-07T10:51:46.283Z,10.94
2023-01-07T10:52:46.293Z,10.99
2023-01-07T10:53:46.392Z,10.97
2023-01-07T10:54:46.264Z,11.00
2023-01-07T10:55:46.254Z,10.97
2023-01-07T10:56:46.242Z,10.97
2023-01-07T10:57:46.215Z,10.94
2023-01-07T10:58:46.231Z,10.94
2023-01-07T10:59:46.224Z,10.91
2023-01-07T11:00:46.849Z,10.92
2023-01-07T11:01:46.276Z,10.92
2023-01-07T11:02:46.274Z,10.96
2023-01-07T11:03:46.148Z,10.94
2023-01-07T11:04:46.152Z,10.97
2023-01-07T11:05:46.132Z,10.99
2023-01-07T11:06:46.181Z,11.02
2023-01-07T11:07:46.097Z,11.00
2023-01-07T11:08:46.089Z,11.02
2023-01-07T11:09:46.072Z,10.97
2023-01-07T11:10:46.085Z,10.96
2023-01-07T11:11:46.046Z,10.94
2023-01-07T11:12:46.150Z,10.97
2023-01-07T11:13:46.023Z,10.94
2023-01-07T11:14:46.029Z,10.96
2023-01-07T11:15:53.017Z,10.97
2023-01-07T11:16:46.064Z,10.96
2023-01-07T11:17:45.975Z,10.96
2023-01-07T11:18:46.053Z,10.99
2023-01-07T11:19:46.016Z,10.94
2023-01-07T11:20:46.018Z,10.91
2023-01-07T11:21:45.931Z,10.91
2023-01-07T11:22:45.951Z,10.91
2023-01-07T11:23:45.900Z,10.91
2023-01-07T11:24:45.899Z,10.92
2023-01-07T11:25:45.889Z,10.96
2023-01-07T11:26:45.958Z,10.99
2023-01-07T11:27:45.844Z,10.99
2023-01-07T11:28:45.867Z,10.99
2023-01-07T11:29:45.846Z,10.99
2023-01-07T11:30:45.894Z,10.91
2023-01-07T11:31:45.852Z,10.91
2023-01-07T11:32:45.814Z,10.94
2023-01-07T11:34:02.718Z,10.92
2023-01-07T11:34:46.785Z,10.96
2023-01-07T11:35:45.735Z,10.99
2023-01-07T11:36:45.956Z,10.99
2023-01-07T11:37:45.775Z,10.99
2023-01-07T11:38:45.733Z,10.96
2023-01-07T11:39:45.694Z,10.92
2023-01-07T11:40:45.747Z,10.94
2023-01-07T11:41:45.661Z,10.99
2023-01-07T11:42:45.740Z,11.03
2023-01-07T11:43:45.640Z,11.03
2023-01-07T11:44:45.653Z,11.07
2023-01-07T11:45:45.654Z,11.10
2023-01-07T11:46:46.669Z,11.10
2023-01-07T11:47:45.602Z,11.11
2023-01-07T11:48:45.754Z,11.11
2023-01-07T11:49:45.601Z,11.14
2023-01-07T11:50:45.571Z,11.17
2023-01-07T11:51:45.563Z,11.17
2023-01-07T11:52:45.569Z,11.17
2023-01-07T11:53:45.508Z,11.15
2023-01-07T11:54:45.700Z,11.14
2023-01-07T11:55:45.495Z,11.11
2023-01-07T11:56:45.495Z,11.11
2023-01-07T11:57:45.460Z,11.15
2023-01-07T11:58:45.496Z,11.15
2023-01-07T11:59:45.447Z,11.17
2023-01-07T12:00:45.619Z,11.11
2023-01-07T12:01:45.419Z,11.17
2023-01-07T12:02:45.484Z,11.19
2023-01-07T12:03:45.481Z,11.21
2023-01-07T12:04:45.422Z,11.19
2023-01-07T12:05:45.379Z,11.22
2023-01-07T12:06:45.547Z,11.22
2023-01-07T12:07:45.351Z,11.24
2023-01-07T12:08:45.367Z,11.21
2023-01-07T12:09:45.328Z,11.24
2023-01-07T12:10:45.319Z,11.29
2023-01-07T12:11:45.379Z,11.29
2023-01-07T12:12:45.368Z,11.27
2023-01-07T12:13:45.290Z,11.25
2023-01-07T12:14:45.315Z,11.22
2023-01-07T12:15:45.235Z,11.22
2023-01-07T12:16:45.328Z,11.22
2023-01-07T12:17:45.241Z,11.22
2023-01-07T12:18:45.852Z,11.24
2023-01-07T12:19:45.213Z,11.25
2023-01-07T12:20:45.198Z,11.21
2023-01-07T12:21:45.227Z,11.19
2023-01-07T12:22:45.228Z,11.19
2023-01-07T12:23:45.196Z,11.19
2023-01-07T12:24:45.705Z,11.17
2023-01-07T12:25:45.125Z,11.17
2023-01-07T12:26:45.135Z,11.19
2023-01-07T12:27:45.093Z,11.18
2023-01-07T12:28:45.093Z,11.21
2023-01-07T12:29:45.061Z,11.21
2023-01-07T12:30:45.225Z,11.21
2023-01-07T12:31:45.108Z,11.21
2023-01-07T12:32:45.040Z,11.19
2023-01-07T12:33:45.134Z,11.18
2023-01-07T12:34:45.112Z,11.22
2023-01-07T12:35:45.044Z,11.25
2023-01-07T12:36:45.002Z,11.22
2023-01-07T12:37:44.966Z,11.25
2023-01-07T12:38:44.962Z,11.21
2023-01-07T12:39:45.550Z,11.21
2023-01-07T12:40:44.981Z,11.18
2023-01-07T12:41:44.920Z,11.17
2023-01-07T12:42:44.924Z,11.17
2023-01-07T12:43:44.885Z,11.14
2023-01-07T12:44:44.905Z,11.15
2023-01-07T12:45:44.942Z,11.15
2023-01-07T12:46:44.877Z,11.14
2023-01-07T12:47:44.858Z,11.11
2023-01-07T12:48:44.849Z,11.11
2023-01-07T12:49:44.827Z,11.14
2023-01-07T12:50:44.834Z,11.18
2023-01-07T12:51:45.547Z,11.18
2023-01-07T12:52:44.794Z,11.19
2023-01-07T12:53:44.777Z,11.22
2023-01-07T12:54:44.838Z,11.21
2023-01-07T12:55:44.861Z,11.21
2023-01-07T12:56:44.721Z,11.22
2023-01-07T12:57:44.886Z,11.24
2023-01-07T12:58:44.753Z,11.22
2023-01-07T12:59:47.126Z,11.21
2023-01-07T13:00:44.674Z,11.24
2023-01-07T13:01:44.877Z,11.24
2023-01-07T13:02:44.647Z,11.25
2023-01-07T13:03:44.714Z,11.25
2023-01-07T13:04:44.647Z,11.24
2023-01-07T13:05:44.796Z,11.19
2023-01-07T13:06:44.645Z,11.19
2023-01-07T13:07:44.604Z,11.22
2023-01-07T13:08:44.576Z,11.24
2023-01-07T13:09:44.593Z,11.21
2023-01-07T13:10:44.564Z,11.19
2023-01-07T13:11:45.177Z,11.21
2023-01-07T13:12:45.703Z,11.22
2023-01-07T13:13:44.548Z,11.24
2023-01-07T13:14:44.506Z,11.22
2023-01-07T13:15:44.644Z,11.21
2023-01-07T13:16:44.491Z,11.22
2023-01-07T13:17:44.800Z,11.22
2023-01-07T13:18:44.451Z,11.25
2023-01-07T13:19:44.452Z,11.27
2023-01-07T13:20:44.422Z,11.32
2023-01-07T13:21:44.495Z,11.35
2023-01-07T13:22:44.523Z,11.39
2023-01-07T13:23:45.133Z,11.39
2023-01-07T13:24:55.742Z,11.40
2023-01-07T13:25:45.416Z,11.40
2023-01-07T13:26:44.351Z,11.42
2023-01-07T13:27:44.377Z,11.47
2023-01-07T13:28:44.322Z,11.46
2023-01-07T13:29:44.454Z,11.46
2023-01-07T13:30:44.352Z,11.46
2023-01-07T13:31:44.413Z,11.46
2023-01-07T13:32:44.280Z,11.47
2023-01-07T13:33:44.296Z,11.51
2023-01-07T13:34:44.240Z,11.47
2023-01-07T13:35:44.305Z,11.46
2023-01-07T13:36:44.393Z,11.44
2023-01-07T13:37:44.289Z,11.40
2023-01-07T13:38:44.201Z,11.40
2023-01-07T13:39:44.269Z,11.35
2023-01-07T13:40:44.158Z,11.35
2023-01-07T13:41:44.183Z,11.29
2023-01-07T13:42:44.268Z,11.22
2023-01-07T13:43:44.171Z,11.21
2023-01-07T13:44:44.138Z,11.18
2023-01-07T13:45:44.190Z,11.19
2023-01-07T13:46:44.129Z,11.21
2023-01-07T13:47:44.114Z,11.21
2023-01-07T13:48:44.450Z,11.27
2023-01-07T13:49:56.500Z,11.22
2023-01-07T13:50:45.062Z,11.21
2023-01-07T13:51:44.070Z,11.17
2023-01-07T13:52:44.073Z,11.18
2023-01-07T13:53:44.077Z,11.24
2023-01-07T13:54:44.365Z,11.18
2023-01-07T13:55:43.995Z,11.17
2023-01-07T13:56:43.966Z,11.11
2023-01-07T13:57:44.020Z,11.11
2023-01-07T13:58:43.999Z,11.15
2023-01-07T13:59:43.940Z,11.18
2023-01-07T14:00:44.195Z,11.21
2023-01-07T14:01:44.130Z,11.18
2023-01-07T14:02:43.965Z,11.19
2023-01-07T14:03:43.967Z,11.19
2023-01-07T14:04:43.903Z,11.19
2023-01-07T14:05:43.884Z,11.21
2023-01-07T14:06:44.799Z,11.24
2023-01-07T14:07:43.844Z,11.22
2023-01-07T14:08:43.813Z,11.24
2023-01-07T14:09:43.840Z,11.25
2023-01-07T14:10:43.815Z,11.24
2023-01-07T14:11:43.801Z,11.22
2023-01-07T14:12:44.451Z,11.22
2023-01-07T14:13:43.772Z,11.15
2023-01-07T14:14:43.734Z,11.14
2023-01-07T14:15:43.848Z,11.10
2023-01-07T14:16:43.727Z,11.11
2023-01-07T14:17:43.732Z,11.07
2023-01-07T14:18:44.246Z,11.09
2023-01-07T14:19:43.731Z,11.09
2023-01-07T14:20:43.671Z,11.09
2023-01-07T14:21:43.698Z,11.07
2023-01-07T14:22:43.640Z,11.04
2023-01-07T14:23:43.653Z,11.06
2023-01-07T14:24:43.652Z,11.03
2023-01-07T14:25:43.676Z,11.00
2023-01-07T14:26:43.597Z,11.00
2023-01-07T14:27:43.594Z,10.99
2023-01-07T14:28:43.580Z,11.02
2023-01-07T14:29:43.591Z,10.99
2023-01-07T14:30:43.592Z,11.00
2023-01-07T14:31:43.578Z,10.97
2023-01-07T14:32:43.508Z,11.03
2023-01-07T14:33:43.543Z,11.24
2023-01-07T14:34:43.517Z,11.58
2023-01-07T14:35:43.488Z,11.90
2023-01-07T14:36:43.519Z,12.20
2023-01-07T14:37:43.528Z,12.47
2023-01-07T14:38:43.436Z,12.71
2023-01-07T14:39:43.510Z,12.82
2023-01-07T14:40:43.425Z,13.03
2023-01-07T14:41:43.470Z,13.08
2023-01-07T14:42:43.578Z,13.15
2023-01-07T14:43:43.477Z,13.17
2023-01-07T14:44:43.437Z,13.05
2023-01-07T14:45:43.391Z,12.97
2023-01-07T14:46:43.405Z,12.87
2023-01-07T14:47:43.357Z,12.71
2023-01-07T14:48:43.427Z,12.46
2023-01-07T14:49:43.321Z,12.16
2023-01-07T14:50:43.283Z,11.91
2023-01-07T14:51:43.286Z,11.65
2023-01-07T14:52:43.268Z,11.49
2023-01-07T14:53:43.276Z,11.39
2023-01-07T14:54:43.304Z,11.27
2023-01-07T14:55:43.271Z,11.14
2023-01-07T14:56:43.303Z,11.04
2023-01-07T14:57:43.220Z,10.91
2023-01-07T14:58:43.170Z,10.84
2023-01-07T14:59:43.163Z,10.78
2023-01-07T15:00:43.762Z,10.73
2023-01-07T15:01:43.355Z,10.63
2023-01-07T15:02:43.139Z,10.53
2023-01-07T15:03:43.152Z,10.45
2023-01-07T15:04:43.084Z,10.40
2023-01-07T15:05:43.115Z,10.38
2023-01-07T15:06:43.321Z,10.33
2023-01-07T15:07:43.102Z,10.30
2023-01-07T15:08:43.051Z,10.25
2023-01-07T15:09:43.060Z,10.15
2023-01-07T15:10:43.029Z,10.07
2023-01-07T15:11:43.039Z,10.02
2023-01-07T15:12:43.065Z,9.96
2023-01-07T15:13:43.052Z,9.90
2023-01-07T15:14:42.984Z,9.81
2023-01-07T15:15:43.024Z,9.76
2023-01-07T15:16:42.948Z,9.68
2023-01-07T15:17:42.957Z,9.61
2023-01-07T15:18:43.423Z,9.53
2023-01-07T15:19:43.025Z,9.46
2023-01-07T15:20:42.879Z,9.38
2023-01-07T15:21:42.911Z,9.33
2023-01-07T15:22:42.885Z,9.31
2023-01-07T15:23:42.902Z,9.23
2023-01-07T15:24:42.941Z,9.17
2023-01-07T15:25:42.845Z,9.11
2023-01-07T15:26:42.818Z,9.04
2023-01-07T15:27:42.993Z,8.96
2023-01-07T15:28:42.810Z,8.91
2023-01-07T15:29:42.819Z,8.83
2023-01-07T15:30:42.782Z,8.76
2023-01-07T15:31:42.822Z,8.70
2023-01-07T15:32:42.736Z,8.65
2023-01-07T15:33:42.806Z,8.55
2023-01-07T15:34:42.737Z,8.47
2023-01-07T15:35:42.836Z,8.41
2023-01-07T15:36:42.739Z,8.34
2023-01-07T15:37:42.693Z,8.26
2023-01-07T15:38:42.655Z,8.22
2023-01-07T15:39:42.755Z,8.19
2023-01-07T15:40:42.635Z,8.18
2023-01-07T15:41:42.738Z,8.11
2023-01-07T15:42:42.604Z,8.07
2023-01-07T15:43:42.642Z,8.04
2023-01-07T15:44:42.583Z,7.98
2023-01-07T15:45:50.141Z,7.89
2023-01-07T15:46:50.152Z,7.80
2023-01-07T15:47:50.056Z,7.71
2023-01-07T15:48:50.033Z,7.63
2023-01-07T15:49:50.055Z,7.60
2023-01-07T15:50:42.520Z,7.52
2023-01-07T15:51:42.500Z,7.48
2023-01-07T15:52:50.059Z,7.45
2023-01-07T15:53:49.988Z,7.43
2023-01-07T15:54:49.966Z,7.42
2023-01-07T15:55:50.107Z,7.42
2023-01-07T15:56:49.931Z,7.42
2023-01-07T15:57:42.778Z,7.42
2023-01-07T15:58:49.887Z,7.40
2023-01-07T15:59:42.387Z,7.42
2023-01-07T16:00:49.404Z,7.40
2023-01-07T16:01:42.584Z,7.40
2023-01-07T16:02:49.894Z,7.35
2023-01-07T16:03:49.882Z,7.32
2023-01-07T16:04:49.881Z,7.27
2023-01-07T16:05:49.944Z,7.21
2023-01-07T16:06:49.804Z,7.17
2023-01-07T16:07:49.801Z,7.15
2023-01-07T16:08:50.825Z,7.12
2023-01-07T16:09:49.781Z,7.07
2023-01-07T16:10:49.763Z,6.99
2023-01-07T16:11:49.775Z,6.95
2023-01-07T16:12:49.718Z,6.91
2023-01-07T16:13:49.735Z,6.89
2023-01-07T16:14:49.788Z,6.84
2023-01-07T16:15:49.795Z,6.84
2023-01-07T16:16:49.695Z,6.80
2023-01-07T16:17:42.153Z,6.80
2023-01-07T16:18:42.174Z,6.81
2023-01-07T16:19:42.144Z,6.79
2023-01-07T16:20:42.405Z,6.80
2023-01-07T16:21:42.099Z,6.77
2023-01-07T16:22:42.130Z,6.76
2023-01-07T16:23:42.161Z,6.71
2023-01-07T16:24:42.087Z,6.69
2023-01-07T16:25:42.068Z,6.66
2023-01-07T16:26:42.069Z,6.64
2023-01-07T16:27:42.011Z,6.66
2023-01-07T16:28:42.063Z,6.69
2023-01-07T16:29:42.343Z,6.71
2023-01-07T16:30:42.021Z,6.80
2023-01-07T16:31:42.033Z,6.85
2023-01-07T16:32:41.969Z,6.87
2023-01-07T16:33:41.986Z,6.88
2023-01-07T16:34:41.978Z,6.91
2023-01-07T16:35:41.999Z,6.99
2023-01-07T16:36:41.948Z,7.07
2023-01-07T16:37:41.912Z,7.17
2023-01-07T16:38:41.912Z,7.21
2023-01-07T16:39:41.880Z,7.23
2023-01-07T16:40:42.335Z,7.17
2023-01-07T16:41:41.877Z,7.20
2023-01-07T16:42:41.856Z,7.24
2023-01-07T16:43:41.856Z,7.32
2023-01-07T16:44:41.888Z,7.37
2023-01-07T16:45:41.801Z,7.39
2023-01-07T16:46:42.741Z,7.35
2023-01-07T16:47:41.819Z,7.35
2023-01-07T16:48:41.776Z,7.32
2023-01-07T16:49:41.733Z,7.27
2023-01-07T16:50:41.767Z,7.23
2023-01-07T16:51:41.708Z,7.15
2023-01-07T16:52:41.770Z,7.10
2023-01-07T16:53:41.808Z,6.98
2023-01-07T16:54:41.692Z,6.89
2023-01-07T16:55:41.667Z,6.84
2023-01-07T16:56:41.674Z,6.80
2023-01-07T16:57:41.651Z,6.73
2023-01-07T16:58:41.641Z,6.67
2023-01-07T16:59:41.646Z,6.67
2023-01-07T17:00:41.924Z,6.66
2023-01-07T17:01:41.604Z,6.64
2023-01-07T17:02:41.608Z,6.64
2023-01-07T17:03:41.612Z,6.64
2023-01-07T17:04:41.559Z,6.59
2023-01-07T17:05:41.544Z,6.56
2023-01-07T17:06:41.883Z,6.54
2023-01-07T17:07:41.534Z,6.52
2023-01-07T17:08:41.540Z,6.49
2023-01-07T17:09:41.616Z,6.49
2023-01-07T17:10:41.486Z,6.48
2023-01-07T17:11:41.459Z,6.41
2023-01-07T17:12:41.550Z,6.37
2023-01-07T17:13:41.458Z,6.31
2023-01-07T17:14:41.432Z,6.27
2023-01-07T17:15:50.902Z,6.19
2023-01-07T17:16:45.072Z,6.15
2023-01-07T17:17:41.970Z,6.11
2023-01-07T17:18:41.840Z,6.04
2023-01-07T17:19:41.616Z,6.01
2023-01-07T17:20:41.767Z,5.93
2023-01-07T17:21:41.992Z,5.91
2023-01-07T17:22:41.943Z,5.91
2023-01-07T17:23:41.920Z,5.93
2023-01-07T17:24:41.899Z,5.91
2023-01-07T17:25:41.886Z,5.91
2023-01-07T17:26:41.989Z,5.96
2023-01-07T17:27:41.831Z,5.97
2023-01-07T17:28:41.869Z,5.93
2023-01-07T17:29:41.842Z,6.00
2023-01-07T17:30:42.091Z,6.00
2023-01-07T17:31:41.784Z,5.97
2023-01-07T17:32:41.784Z,5.91
2023-01-07T17:33:41.658Z,5.93
2023-01-07T17:34:41.820Z,5.93
2023-01-07T17:35:41.441Z,5.91
2023-01-07T17:36:42.038Z,5.90
2023-01-07T17:37:42.225Z,5.86
2023-01-07T17:38:41.718Z,5.89
2023-01-07T17:39:41.322Z,5.86
2023-01-07T17:40:41.753Z,5.89
2023-01-07T17:41:41.773Z,5.85
2023-01-07T17:42:41.812Z,5.83
2023-01-07T17:43:41.349Z,5.82
2023-01-07T17:44:41.504Z,5.81
2023-01-07T17:45:41.369Z,5.75
2023-01-07T17:46:41.129Z,5.72
2023-01-07T17:47:41.913Z,5.71
2023-01-07T17:48:41.694Z,5.71
2023-01-07T17:49:41.934Z,5.71
2023-01-07T17:50:41.770Z,5.75
2023-01-07T17:51:41.528Z,5.78
2023-01-07T17:52:41.484Z,5.76
2023-01-07T17:53:41.665Z,5.76
2023-01-07T17:54:41.603Z,5.76
2023-01-07T17:55:41.371Z,5.75
2023-01-07T17:56:42.324Z,5.71
2023-01-07T17:57:41.195Z,5.65
2023-01-07T17:58:41.418Z,5.61
2023-01-07T17:59:41.547Z,5.54
2023-01-07T18:00:41.401Z,5.49
2023-01-07T18:01:41.038Z,5.42
2023-01-07T18:02:41.794Z,5.43
2023-01-07T18:03:41.394Z,5.42
2023-01-07T18:04:41.431Z,5.40
2023-01-07T18:05:41.489Z,5.40
2023-01-07T18:06:41.188Z,5.43